sensor_id;sensor_type;location;lat;lon;timestamp;P1;durP1;ratioP1;P2;durP2;ratioP2
24467;SDS011;12634;50.852;5.676;2023-01-20T00:01:03;16.00;;;8.52;;
24467;SDS011;12634;50.852;5.676;2023-01-20T00:03:31;15.00;;;9.35;;
24467;SDS011;12634;50.852;5.676;2023-01-20T00:05:58;17.17;;;9.55;;
24467;SDS011;12634;50.852;5.676;2023-01-20T00:08:25;16.40;;;10.68;;
24467;SDS011;12634;50.852;5.676;2023-01-20T00:10:52;14.85;;;9.00;;
24467;SDS011;12634;50.852;5.676;2023-01-20T00:13:19;21.27;;;11.52;;
24467;SDS011;12634;50.852;5.676;2023-01-20T00:15:48;18.52;;;9.60;;
24467;SDS011;12634;50.852;5.676;2023-01-20T00:18:15;12.35;;;7.95;;
24467;SDS011;12634;50.852;5.676;2023-01-20T00:20:42;21.33;;;12.15;;
24467;SDS011;12634;50.852;5.676;2023-01-20T00:23:09;19.48;;;10.63;;
24467;SDS011;12634;50.852;5.676;2023-01-20T00:25:37;20.13;;;11.95;;
24467;SDS011;12634;50.852;5.676;2023-01-20T00:28:04;20.92;;;11.02;;
24467;SDS011;12634;50.852;5.676;2023-01-20T00:30:31;19.73;;;12.00;;
24467;SDS011;12634;50.852;5.676;2023-01-20T00:33:00;24.00;;;11.57;;
24467;SDS011;12634;50.852;5.676;2023-01-20T00:35:27;16.67;;;10.40;;
24467;SDS011;12634;50.852;5.676;2023-01-20T00:37:54;20.17;;;11.15;;
24467;SDS011;12634;50.852;5.676;2023-01-20T00:40:21;22.58;;;11.93;;
24467;SDS011;12634;50.852;5.676;2023-01-20T00:42:49;20.60;;;11.23;;
24467;SDS011;12634;50.852;5.676;2023-01-20T00:45:16;18.88;;;11.77;;
24467;SDS011;12634;50.852;5.676;2023-01-20T00:47:43;17.13;;;10.38;;
24467;SDS011;12634;50.852;5.676;2023-01-20T00:50:12;17.63;;;10.73;;
24467;SDS011;12634;50.852;5.676;2023-01-20T00:52:39;20.98;;;11.35;;
24467;SDS011;12634;50.852;5.676;2023-01-20T00:55:06;20.02;;;11.15;;
24467;SDS011;12634;50.852;5.676;2023-01-20T00:57:34;15.50;;;9.60;;
24467;SDS011;12634;50.852;5.676;2023-01-20T01:00:02;18.42;;;10.98;;
24467;SDS011;12634;50.852;5.676;2023-01-20T01:02:30;17.33;;;10.68;;
24467;SDS011;12634;50.852;5.676;2023-01-20T01:04:57;16.70;;;10.10;;
24467;SDS011;12634;50.852;5.676;2023-01-20T01:07:25;18.13;;;9.88;;
24467;SDS011;12634;50.852;5.676;2023-01-20T01:09:52;16.92;;;10.60;;
24467;SDS011;12634;50.852;5.676;2023-01-20T01:12:20;19.58;;;10.90;;
24467;SDS011;12634;50.852;5.676;2023-01-20T01:14:47;21.95;;;11.18;;
24467;SDS011;12634;50.852;5.676;2023-01-20T01:17:14;18.02;;;10.65;;
24467;SDS011;12634;50.852;5.676;2023-01-20T01:19:41;14.85;;;8.88;;
24467;SDS011;12634;50.852;5.676;2023-01-20T01:22:08;20.05;;;11.18;;
24467;SDS011;12634;50.852;5.676;2023-01-20T01:24:37;18.02;;;10.32;;
24467;SDS011;12634;50.852;5.676;2023-01-20T01:27:04;20.05;;;11.32;;
24467;SDS011;12634;50.852;5.676;2023-01-20T01:29:31;18.90;;;11.43;;
24467;SDS011;12634;50.852;5.676;2023-01-20T01:31:58;17.55;;;10.98;;
24467;SDS011;12634;50.852;5.676;2023-01-20T01:34:25;17.30;;;10.77;;
24467;SDS011;12634;50.852;5.676;2023-01-20T01:36:53;15.52;;;10.30;;
24467;SDS011;12634;50.852;5.676;2023-01-20T01:39:20;15.15;;;9.98;;
24467;SDS011;12634;50.852;5.676;2023-01-20T01:41:48;17.17;;;10.45;;
24467;SDS011;12634;50.852;5.676;2023-01-20T01:44:16;17.98;;;10.38;;
24467;SDS011;12634;50.852;5.676;2023-01-20T01:46:44;17.58;;;10.60;;
24467;SDS011;12634;50.852;5.676;2023-01-20T01:49:12;17.02;;;10.65;;
24467;SDS011;12634;50.852;5.676;2023-01-20T01:51:45;18.88;;;11.93;;
24467;SDS011;12634;50.852;5.676;2023-01-20T01:54:17;19.93;;;11.27;;
24467;SDS011;12634;50.852;5.676;2023-01-20T01:56:46;15.90;;;9.27;;
24467;SDS011;12634;50.852;5.676;2023-01-20T01:59:16;15.85;;;9.77;;
24467;SDS011;12634;50.852;5.676;2023-01-20T02:01:45;15.55;;;9.45;;
24467;SDS011;12634;50.852;5.676;2023-01-20T02:04:15;16.38;;;9.30;;
24467;SDS011;12634;50.852;5.676;2023-01-20T02:06:46;16.27;;;10.20;;
24467;SDS011;12634;50.852;5.676;2023-01-20T02:09:16;16.90;;;9.98;;
24467;SDS011;12634;50.852;5.676;2023-01-20T02:11:46;15.65;;;9.15;;
24467;SDS011;12634;50.852;5.676;2023-01-20T02:16:50;16.20;;;9.65;;
24467;SDS011;12634;50.852;5.676;2023-01-20T02:19:31;17.38;;;10.93;;
24467;SDS011;12634;50.852;5.676;2023-01-20T02:22:16;16.73;;;9.57;;
24467;SDS011;12634;50.852;5.676;2023-01-20T02:28:00;16.70;;;10.63;;
24467;SDS011;12634;50.852;5.676;2023-01-20T02:30:53;17.02;;;10.57;;
24467;SDS011;12634;50.852;5.676;2023-01-20T02:33:36;18.65;;;10.43;;
24467;SDS011;12634;50.852;5.676;2023-01-20T02:36:08;15.35;;;9.45;;
24467;SDS011;12634;50.852;5.676;2023-01-20T02:38:38;15.73;;;10.38;;
24467;SDS011;12634;50.852;5.676;2023-01-20T02:41:14;15.35;;;9.63;;
24467;SDS011;12634;50.852;5.676;2023-01-20T02:43:47;15.77;;;9.55;;
24467;SDS011;12634;50.852;5.676;2023-01-20T02:46:19;15.70;;;9.55;;
24467;SDS011;12634;50.852;5.676;2023-01-20T02:48:52;17.83;;;10.25;;
24467;SDS011;12634;50.852;5.676;2023-01-20T02:51:27;18.05;;;9.50;;
24467;SDS011;12634;50.852;5.676;2023-01-20T02:53:59;16.20;;;9.65;;
24467;SDS011;12634;50.852;5.676;2023-01-20T02:56:31;16.58;;;10.10;;
24467;SDS011;12634;50.852;5.676;2023-01-20T02:59:02;16.17;;;9.77;;
24467;SDS011;12634;50.852;5.676;2023-01-20T03:01:35;17.15;;;10.52;;
24467;SDS011;12634;50.852;5.676;2023-01-20T03:04:07;14.60;;;9.32;;
24467;SDS011;12634;50.852;5.676;2023-01-20T03:06:40;16.58;;;9.98;;
24467;SDS011;12634;50.852;5.676;2023-01-20T03:09:11;15.55;;;9.38;;
24467;SDS011;12634;50.852;5.676;2023-01-20T03:11:43;14.35;;;9.38;;
24467;SDS011;12634;50.852;5.676;2023-01-20T03:16:42;17.60;;;10.25;;
24467;SDS011;12634;50.852;5.676;2023-01-20T03:19:13;16.25;;;9.95;;
24467;SDS011;12634;50.852;5.676;2023-01-20T03:21:42;15.18;;;9.23;;
24467;SDS011;12634;50.852;5.676;2023-01-20T03:24:10;15.07;;;8.90;;
24467;SDS011;12634;50.852;5.676;2023-01-20T03:26:38;13.82;;;7.38;;
24467;SDS011;12634;50.852;5.676;2023-01-20T03:29:06;16.88;;;10.30;;
24467;SDS011;12634;50.852;5.676;2023-01-20T03:31:35;20.08;;;11.85;;
24467;SDS011;12634;50.852;5.676;2023-01-20T03:34:06;18.27;;;12.05;;
24467;SDS011;12634;50.852;5.676;2023-01-20T03:36:38;21.70;;;12.95;;
24467;SDS011;12634;50.852;5.676;2023-01-20T03:39:08;19.73;;;11.82;;
24467;SDS011;12634;50.852;5.676;2023-01-20T03:41:39;21.70;;;11.82;;
24467;SDS011;12634;50.852;5.676;2023-01-20T03:44:17;21.83;;;12.23;;
24467;SDS011;12634;50.852;5.676;2023-01-20T03:46:52;18.38;;;11.43;;
24467;SDS011;12634;50.852;5.676;2023-01-20T03:49:28;16.98;;;11.38;;
24467;SDS011;12634;50.852;5.676;2023-01-20T03:52:02;20.70;;;11.93;;
24467;SDS011;12634;50.852;5.676;2023-01-20T03:54:35;19.38;;;11.85;;
24467;SDS011;12634;50.852;5.676;2023-01-20T03:57:08;20.17;;;10.48;;
24467;SDS011;12634;50.852;5.676;2023-01-20T03:59:39;18.27;;;11.38;;
24467;SDS011;12634;50.852;5.676;2023-01-20T04:02:08;21.10;;;13.13;;
24467;SDS011;12634;50.852;5.676;2023-01-20T04:04:37;14.20;;;8.57;;
24467;SDS011;12634;50.852;5.676;2023-01-20T04:07:08;19.10;;;11.63;;
24467;SDS011;12634;50.852;5.676;2023-01-20T04:09:40;24.42;;;13.05;;
24467;SDS011;12634;50.852;5.676;2023-01-20T04:12:11;20.83;;;11.25;;
24467;SDS011;12634;50.852;5.676;2023-01-20T04:14:39;15.73;;;9.25;;
24467;SDS011;12634;50.852;5.676;2023-01-20T04:17:06;20.00;;;11.52;;
24467;SDS011;12634;50.852;5.676;2023-01-20T04:19:33;20.38;;;11.07;;
24467;SDS011;12634;50.852;5.676;2023-01-20T04:22:02;17.05;;;9.88;;
24467;SDS011;12634;50.852;5.676;2023-01-20T04:24:36;23.63;;;13.18;;
24467;SDS011;12634;50.852;5.676;2023-01-20T04:27:06;22.25;;;13.50;;
24467;SDS011;12634;50.852;5.676;2023-01-20T04:29:33;25.25;;;12.57;;
24467;SDS011;12634;50.852;5.676;2023-01-20T04:32:00;18.88;;;11.80;;
24467;SDS011;12634;50.852;5.676;2023-01-20T04:34:29;19.67;;;11.10;;
24467;SDS011;12634;50.852;5.676;2023-01-20T04:36:56;23.27;;;12.25;;
24467;SDS011;12634;50.852;5.676;2023-01-20T04:39:23;20.02;;;11.68;;
24467;SDS011;12634;50.852;5.676;2023-01-20T04:41:52;20.52;;;11.50;;
24467;SDS011;12634;50.852;5.676;2023-01-20T04:44:19;19.77;;;11.55;;
24467;SDS011;12634;50.852;5.676;2023-01-20T04:46:46;18.90;;;11.93;;
24467;SDS011;12634;50.852;5.676;2023-01-20T04:49:13;21.40;;;12.55;;
24467;SDS011;12634;50.852;5.676;2023-01-20T04:51:41;19.00;;;11.10;;
24467;SDS011;12634;50.852;5.676;2023-01-20T04:54:08;23.38;;;11.57;;
24467;SDS011;12634;50.852;5.676;2023-01-20T04:56:36;19.83;;;11.07;;
24467;SDS011;12634;50.852;5.676;2023-01-20T04:59:05;20.08;;;10.82;;
24467;SDS011;12634;50.852;5.676;2023-01-20T05:01:32;19.20;;;11.15;;
24467;SDS011;12634;50.852;5.676;2023-01-20T05:03:59;17.90;;;11.90;;
24467;SDS011;12634;50.852;5.676;2023-01-20T05:06:26;23.23;;;11.73;;
24467;SDS011;12634;50.852;5.676;2023-01-20T05:08:54;17.98;;;9.18;;
24467;SDS011;12634;50.852;5.676;2023-01-20T05:11:21;20.10;;;10.68;;
24467;SDS011;12634;50.852;5.676;2023-01-20T05:13:48;19.08;;;11.23;;
24467;SDS011;12634;50.852;5.676;2023-01-20T05:16:17;15.48;;;9.05;;
24467;SDS011;12634;50.852;5.676;2023-01-20T05:18:48;19.10;;;11.15;;
24467;SDS011;12634;50.852;5.676;2023-01-20T05:21:15;19.30;;;11.73;;
24467;SDS011;12634;50.852;5.676;2023-01-20T05:23:42;19.02;;;11.27;;
24467;SDS011;12634;50.852;5.676;2023-01-20T05:26:09;19.52;;;10.88;;
24467;SDS011;12634;50.852;5.676;2023-01-20T05:28:36;22.63;;;11.88;;
24467;SDS011;12634;50.852;5.676;2023-01-20T05:31:04;20.00;;;11.35;;
24467;SDS011;12634;50.852;5.676;2023-01-20T05:33:33;19.30;;;10.57;;
24467;SDS011;12634;50.852;5.676;2023-01-20T05:36:03;18.98;;;11.63;;
24467;SDS011;12634;50.852;5.676;2023-01-20T05:38:30;19.35;;;10.15;;
24467;SDS011;12634;50.852;5.676;2023-01-20T05:40:58;20.30;;;9.77;;
24467;SDS011;12634;50.852;5.676;2023-01-20T05:43:25;20.00;;;11.73;;
24467;SDS011;12634;50.852;5.676;2023-01-20T05:45:53;20.48;;;11.40;;
24467;SDS011;12634;50.852;5.676;2023-01-20T05:48:20;20.92;;;11.70;;
24467;SDS011;12634;50.852;5.676;2023-01-20T05:50:49;20.23;;;11.93;;
24467;SDS011;12634;50.852;5.676;2023-01-20T05:53:16;20.90;;;11.35;;
24467;SDS011;12634;50.852;5.676;2023-01-20T05:55:44;18.45;;;10.40;;
24467;SDS011;12634;50.852;5.676;2023-01-20T05:58:11;19.20;;;11.27;;
24467;SDS011;12634;50.852;5.676;2023-01-20T06:00:38;16.60;;;10.02;;
24467;SDS011;12634;50.852;5.676;2023-01-20T06:03:05;16.33;;;10.25;;
24467;SDS011;12634;50.852;5.676;2023-01-20T06:05:32;16.90;;;10.90;;
24467;SDS011;12634;50.852;5.676;2023-01-20T06:08:01;15.13;;;9.73;;
24467;SDS011;12634;50.852;5.676;2023-01-20T06:10:28;18.73;;;11.63;;
24467;SDS011;12634;50.852;5.676;2023-01-20T06:12:55;17.38;;;11.30;;
24467;SDS011;12634;50.852;5.676;2023-01-20T06:15:23;17.45;;;10.48;;
24467;SDS011;12634;50.852;5.676;2023-01-20T06:17:50;17.52;;;10.77;;
24467;SDS011;12634;50.852;5.676;2023-01-20T06:20:18;18.17;;;11.50;;
24467;SDS011;12634;50.852;5.676;2023-01-20T06:22:45;15.30;;;9.90;;
24467;SDS011;12634;50.852;5.676;2023-01-20T06:25:13;18.80;;;10.35;;
24467;SDS011;12634;50.852;5.676;2023-01-20T06:27:41;21.08;;;11.30;;
24467;SDS011;12634;50.852;5.676;2023-01-20T06:30:08;18.58;;;11.73;;
24467;SDS011;12634;50.852;5.676;2023-01-20T06:32:36;19.63;;;10.77;;
24467;SDS011;12634;50.852;5.676;2023-01-20T06:35:04;23.02;;;11.45;;
24467;SDS011;12634;50.852;5.676;2023-01-20T06:37:31;17.10;;;11.38;;
24467;SDS011;12634;50.852;5.676;2023-01-20T06:39:58;19.25;;;11.98;;
24467;SDS011;12634;50.852;5.676;2023-01-20T06:42:27;18.88;;;11.68;;
24467;SDS011;12634;50.852;5.676;2023-01-20T06:44:57;18.55;;;11.75;;
24467;SDS011;12634;50.852;5.676;2023-01-20T06:47:24;17.67;;;11.70;;
24467;SDS011;12634;50.852;5.676;2023-01-20T06:49:51;18.02;;;12.30;;
24467;SDS011;12634;50.852;5.676;2023-01-20T06:52:18;20.27;;;12.90;;
24467;SDS011;12634;50.852;5.676;2023-01-20T06:54:45;18.67;;;12.63;;
24467;SDS011;12634;50.852;5.676;2023-01-20T06:57:13;17.77;;;11.27;;
24467;SDS011;12634;50.852;5.676;2023-01-20T06:59:41;21.77;;;13.38;;
24467;SDS011;12634;50.852;5.676;2023-01-20T07:02:09;19.15;;;11.57;;
24467;SDS011;12634;50.852;5.676;2023-01-20T07:04:37;21.63;;;12.32;;
24467;SDS011;12634;50.852;5.676;2023-01-20T07:07:04;18.52;;;11.60;;
24467;SDS011;12634;50.852;5.676;2023-01-20T07:09:31;19.75;;;11.68;;
24467;SDS011;12634;50.852;5.676;2023-01-20T07:11:59;18.30;;;10.10;;
24467;SDS011;12634;50.852;5.676;2023-01-20T07:14:26;18.90;;;12.43;;
24467;SDS011;12634;50.852;5.676;2023-01-20T07:16:54;18.33;;;12.40;;
24467;SDS011;12634;50.852;5.676;2023-01-20T07:19:22;20.15;;;12.43;;
24467;SDS011;12634;50.852;5.676;2023-01-20T07:21:49;18.48;;;11.38;;
24467;SDS011;12634;50.852;5.676;2023-01-20T07:24:16;17.83;;;10.98;;
24467;SDS011;12634;50.852;5.676;2023-01-20T07:26:43;15.13;;;9.85;;
24467;SDS011;12634;50.852;5.676;2023-01-20T07:29:10;15.85;;;10.27;;
24467;SDS011;12634;50.852;5.676;2023-01-20T07:31:37;16.27;;;10.15;;
24467;SDS011;12634;50.852;5.676;2023-01-20T07:34:06;16.88;;;10.63;;
24467;SDS011;12634;50.852;5.676;2023-01-20T07:36:33;16.90;;;10.52;;
24467;SDS011;12634;50.852;5.676;2023-01-20T07:39:00;15.00;;;9.63;;
24467;SDS011;12634;50.852;5.676;2023-01-20T07:41:27;15.82;;;10.90;;
24467;SDS011;12634;50.852;5.676;2023-01-20T07:43:55;18.52;;;10.93;;
24467;SDS011;12634;50.852;5.676;2023-01-20T07:46:22;19.30;;;10.52;;
24467;SDS011;12634;50.852;5.676;2023-01-20T07:48:49;18.25;;;10.48;;
24467;SDS011;12634;50.852;5.676;2023-01-20T07:51:18;17.40;;;10.52;;
24467;SDS011;12634;50.852;5.676;2023-01-20T07:53:45;17.40;;;10.98;;
24467;SDS011;12634;50.852;5.676;2023-01-20T07:56:15;15.52;;;9.60;;
24467;SDS011;12634;50.852;5.676;2023-01-20T07:58:44;14.50;;;9.88;;
24467;SDS011;12634;50.852;5.676;2023-01-20T08:01:12;14.73;;;8.57;;
24467;SDS011;12634;50.852;5.676;2023-01-20T08:03:40;14.50;;;9.65;;
24467;SDS011;12634;50.852;5.676;2023-01-20T08:06:08;13.00;;;8.77;;
24467;SDS011;12634;50.852;5.676;2023-01-20T08:08:39;14.30;;;8.45;;
24467;SDS011;12634;50.852;5.676;2023-01-20T08:11:06;13.38;;;9.00;;
24467;SDS011;12634;50.852;5.676;2023-01-20T08:13:35;16.83;;;8.85;;
24467;SDS011;12634;50.852;5.676;2023-01-20T08:16:04;16.45;;;8.82;;
24467;SDS011;12634;50.852;5.676;2023-01-20T08:18:32;13.13;;;8.25;;
24467;SDS011;12634;50.852;5.676;2023-01-20T08:21:01;15.52;;;7.88;;
24467;SDS011;12634;50.852;5.676;2023-01-20T08:23:30;10.18;;;7.75;;
24467;SDS011;12634;50.852;5.676;2023-01-20T08:25:59;13.00;;;8.82;;
24467;SDS011;12634;50.852;5.676;2023-01-20T08:28:28;14.35;;;8.55;;
24467;SDS011;12634;50.852;5.676;2023-01-20T08:31:01;16.50;;;8.15;;
24467;SDS011;12634;50.852;5.676;2023-01-20T08:33:29;13.70;;;9.23;;
24467;SDS011;12634;50.852;5.676;2023-01-20T08:36:01;13.55;;;9.13;;
24467;SDS011;12634;50.852;5.676;2023-01-20T08:38:33;15.48;;;9.45;;
24467;SDS011;12634;50.852;5.676;2023-01-20T08:41:02;13.18;;;8.75;;
24467;SDS011;12634;50.852;5.676;2023-01-20T08:43:32;14.50;;;9.02;;
24467;SDS011;12634;50.852;5.676;2023-01-20T08:46:00;15.10;;;8.98;;
24467;SDS011;12634;50.852;5.676;2023-01-20T08:48:28;16.05;;;8.43;;
24467;SDS011;12634;50.852;5.676;2023-01-20T08:50:55;15.07;;;10.05;;
24467;SDS011;12634;50.852;5.676;2023-01-20T08:53:22;15.50;;;10.32;;
24467;SDS011;12634;50.852;5.676;2023-01-20T08:55:53;15.05;;;9.93;;
24467;SDS011;12634;50.852;5.676;2023-01-20T08:58:22;17.20;;;10.65;;
24467;SDS011;12634;50.852;5.676;2023-01-20T09:00:50;17.60;;;10.95;;
24467;SDS011;12634;50.852;5.676;2023-01-20T09:03:17;17.85;;;10.23;;
24467;SDS011;12634;50.852;5.676;2023-01-20T09:05:45;21.83;;;10.73;;
24467;SDS011;12634;50.852;5.676;2023-01-20T09:08:12;15.07;;;10.43;;
24467;SDS011;12634;50.852;5.676;2023-01-20T09:10:41;17.88;;;10.95;;
24467;SDS011;12634;50.852;5.676;2023-01-20T09:13:08;18.00;;;11.60;;
24467;SDS011;12634;50.852;5.676;2023-01-20T09:15:37;18.35;;;11.98;;
24467;SDS011;12634;50.852;5.676;2023-01-20T09:18:04;23.25;;;11.90;;
24467;SDS011;12634;50.852;5.676;2023-01-20T09:20:31;15.55;;;10.65;;
24467;SDS011;12634;50.852;5.676;2023-01-20T09:22:59;18.33;;;11.52;;
24467;SDS011;12634;50.852;5.676;2023-01-20T09:25:27;17.75;;;11.52;;
24467;SDS011;12634;50.852;5.676;2023-01-20T09:27:55;19.25;;;11.82;;
24467;SDS011;12634;50.852;5.676;2023-01-20T09:30:25;19.55;;;13.02;;
24467;SDS011;12634;50.852;5.676;2023-01-20T09:32:53;22.17;;;13.23;;
24467;SDS011;12634;50.852;5.676;2023-01-20T09:35:23;21.02;;;14.07;;
24467;SDS011;12634;50.852;5.676;2023-01-20T09:37:51;19.88;;;12.95;;
24467;SDS011;12634;50.852;5.676;2023-01-20T09:40:52;21.13;;;12.63;;
24467;SDS011;12634;50.852;5.676;2023-01-20T09:43:48;22.52;;;12.32;;
24467;SDS011;12634;50.852;5.676;2023-01-20T09:46:27;19.63;;;11.23;;
24467;SDS011;12634;50.852;5.676;2023-01-20T09:49:06;17.35;;;10.50;;
24467;SDS011;12634;50.852;5.676;2023-01-20T09:52:04;16.27;;;11.05;;
24467;SDS011;12634;50.852;5.676;2023-01-20T09:54:55;13.90;;;8.95;;
24467;SDS011;12634;50.852;5.676;2023-01-20T10:00:00;21.20;;;12.48;;
24467;SDS011;12634;50.852;5.676;2023-01-20T10:02:34;22.63;;;12.60;;
24467;SDS011;12634;50.852;5.676;2023-01-20T10:05:06;18.67;;;10.43;;
24467;SDS011;12634;50.852;5.676;2023-01-20T10:07:39;17.63;;;11.00;;
24467;SDS011;12634;50.852;5.676;2023-01-20T10:10:11;19.27;;;12.02;;
24467;SDS011;12634;50.852;5.676;2023-01-20T10:12:44;18.10;;;11.07;;
24467;SDS011;12634;50.852;5.676;2023-01-20T10:15:16;16.55;;;10.50;;
24467;SDS011;12634;50.852;5.676;2023-01-20T10:17:48;15.02;;;9.55;;
24467;SDS011;12634;50.852;5.676;2023-01-20T10:22:54;16.13;;;9.57;;
24467;SDS011;12634;50.852;5.676;2023-01-20T10:25:27;12.13;;;8.85;;
24467;SDS011;12634;50.852;5.676;2023-01-20T10:28:00;15.35;;;9.18;;
24467;SDS011;12634;50.852;5.676;2023-01-20T10:30:35;15.05;;;9.27;;
24467;SDS011;12634;50.852;5.676;2023-01-20T10:33:04;15.23;;;9.10;;
24467;SDS011;12634;50.852;5.676;2023-01-20T10:35:36;12.75;;;8.40;;
24467;SDS011;12634;50.852;5.676;2023-01-20T10:38:07;15.98;;;8.93;;
24467;SDS011;12634;50.852;5.676;2023-01-20T10:40:45;14.02;;;9.13;;
24467;SDS011;12634;50.852;5.676;2023-01-20T10:43:16;13.63;;;9.60;;
24467;SDS011;12634;50.852;5.676;2023-01-20T10:45:51;13.02;;;8.85;;
24467;SDS011;12634;50.852;5.676;2023-01-20T10:51:07;14.13;;;8.75;;
24467;SDS011;12634;50.852;5.676;2023-01-20T10:53:46;12.85;;;8.50;;
24467;SDS011;12634;50.852;5.676;2023-01-20T10:56:33;11.63;;;7.88;;
24467;SDS011;12634;50.852;5.676;2023-01-20T10:59:07;11.98;;;8.45;;
24467;SDS011;12634;50.852;5.676;2023-01-20T11:01:39;11.23;;;7.00;;
24467;SDS011;12634;50.852;5.676;2023-01-20T11:04:13;10.25;;;7.18;;
24467;SDS011;12634;50.852;5.676;2023-01-20T11:06:44;11.77;;;8.73;;
24467;SDS011;12634;50.852;5.676;2023-01-20T11:09:19;9.75;;;6.82;;
24467;SDS011;12634;50.852;5.676;2023-01-20T11:11:49;9.68;;;6.68;;
24467;SDS011;12634;50.852;5.676;2023-01-20T11:14:18;9.20;;;6.00;;
24467;SDS011;12634;50.852;5.676;2023-01-20T11:16:48;14.85;;;7.22;;
24467;SDS011;12634;50.852;5.676;2023-01-20T11:19:19;12.30;;;7.72;;
24467;SDS011;12634;50.852;5.676;2023-01-20T11:21:47;12.25;;;7.75;;
24467;SDS011;12634;50.852;5.676;2023-01-20T11:24:26;13.57;;;7.85;;
24467;SDS011;12634;50.852;5.676;2023-01-20T11:27:02;11.45;;;6.72;;
24467;SDS011;12634;50.852;5.676;2023-01-20T11:29:33;10.02;;;6.40;;
24467;SDS011;12634;50.852;5.676;2023-01-20T11:32:07;13.40;;;8.32;;
24467;SDS011;12634;50.852;5.676;2023-01-20T11:34:59;9.95;;;7.30;;
24467;SDS011;12634;50.852;5.676;2023-01-20T11:37:35;14.18;;;8.70;;
24467;SDS011;12634;50.852;5.676;2023-01-20T11:40:17;11.52;;;8.13;;
24467;SDS011;12634;50.852;5.676;2023-01-20T11:42:47;13.85;;;9.57;;
24467;SDS011;12634;50.852;5.676;2023-01-20T11:45:26;14.68;;;8.90;;
24467;SDS011;12634;50.852;5.676;2023-01-20T11:48:04;12.30;;;8.55;;
24467;SDS011;12634;50.852;5.676;2023-01-20T11:50:44;12.45;;;8.52;;
24467;SDS011;12634;50.852;5.676;2023-01-20T11:53:20;11.43;;;8.55;;
24467;SDS011;12634;50.852;5.676;2023-01-20T11:55:51;13.70;;;8.05;;
24467;SDS011;12634;50.852;5.676;2023-01-20T11:58:20;13.05;;;8.57;;
24467;SDS011;12634;50.852;5.676;2023-01-20T12:00:50;15.10;;;9.60;;
24467;SDS011;12634;50.852;5.676;2023-01-20T12:03:32;18.20;;;10.05;;
24467;SDS011;12634;50.852;5.676;2023-01-20T12:06:16;16.05;;;9.63;;
24467;SDS011;12634;50.852;5.676;2023-01-20T12:08:51;14.38;;;9.05;;
24467;SDS011;12634;50.852;5.676;2023-01-20T12:11:23;18.63;;;9.43;;
24467;SDS011;12634;50.852;5.676;2023-01-20T12:14:05;15.10;;;9.73;;
24467;SDS011;12634;50.852;5.676;2023-01-20T12:17:10;18.63;;;9.98;;
24467;SDS011;12634;50.852;5.676;2023-01-20T12:19:57;18.38;;;10.13;;
24467;SDS011;12634;50.852;5.676;2023-01-20T12:22:37;17.88;;;10.52;;
24467;SDS011;12634;50.852;5.676;2023-01-20T12:25:17;13.95;;;9.05;;
24467;SDS011;12634;50.852;5.676;2023-01-20T12:27:47;17.95;;;10.85;;
24467;SDS011;12634;50.852;5.676;2023-01-20T12:33:22;16.23;;;10.57;;
24467;SDS011;12634;50.852;5.676;2023-01-20T12:39:06;20.63;;;12.48;;
24467;SDS011;12634;50.852;5.676;2023-01-20T12:41:59;18.95;;;11.02;;
24467;SDS011;12634;50.852;5.676;2023-01-20T12:44:42;21.67;;;11.30;;
24467;SDS011;12634;50.852;5.676;2023-01-20T12:47:18;20.77;;;11.57;;
24467;SDS011;12634;50.852;5.676;2023-01-20T12:50:01;17.63;;;11.40;;
24467;SDS011;12634;50.852;5.676;2023-01-20T12:52:52;20.10;;;12.40;;
24467;SDS011;12634;50.852;5.676;2023-01-20T12:55:36;21.35;;;10.88;;
24467;SDS011;12634;50.852;5.676;2023-01-20T12:58:15;12.73;;;8.70;;
24467;SDS011;12634;50.852;5.676;2023-01-20T13:00:53;15.57;;;10.73;;
24467;SDS011;12634;50.852;5.676;2023-01-20T13:06:53;14.55;;;9.32;;
24467;SDS011;12634;50.852;5.676;2023-01-20T13:09:43;19.10;;;10.85;;
24467;SDS011;12634;50.852;5.676;2023-01-20T13:12:26;16.13;;;10.43;;
24467;SDS011;12634;50.852;5.676;2023-01-20T13:15:08;16.70;;;9.90;;
24467;SDS011;12634;50.852;5.676;2023-01-20T13:17:46;15.55;;;10.77;;
24467;SDS011;12634;50.852;5.676;2023-01-20T13:20:47;16.50;;;10.65;;
24467;SDS011;12634;50.852;5.676;2023-01-20T13:23:15;17.70;;;11.05;;
24467;SDS011;12634;50.852;5.676;2023-01-20T13:25:45;13.75;;;9.98;;
24467;SDS011;12634;50.852;5.676;2023-01-20T13:28:14;16.48;;;10.73;;
24467;SDS011;12634;50.852;5.676;2023-01-20T13:30:44;17.52;;;10.82;;
24467;SDS011;12634;50.852;5.676;2023-01-20T13:33:27;18.33;;;10.35;;
24467;SDS011;12634;50.852;5.676;2023-01-20T13:36:00;17.33;;;10.43;;
24467;SDS011;12634;50.852;5.676;2023-01-20T13:38:40;14.30;;;9.40;;
24467;SDS011;12634;50.852;5.676;2023-01-20T13:41:08;16.08;;;11.00;;
24467;SDS011;12634;50.852;5.676;2023-01-20T13:49:23;15.50;;;9.10;;
24467;SDS011;12634;50.852;5.676;2023-01-20T13:52:09;17.02;;;12.30;;
24467;SDS011;12634;50.852;5.676;2023-01-20T13:54:40;20.25;;;11.80;;
24467;SDS011;12634;50.852;5.676;2023-01-20T13:59:58;17.25;;;12.13;;
24467;SDS011;12634;50.852;5.676;2023-01-20T14:02:31;15.30;;;11.70;;
24467;SDS011;12634;50.852;5.676;2023-01-20T14:05:01;15.32;;;10.88;;
24467;SDS011;12634;50.852;5.676;2023-01-20T14:07:29;17.70;;;12.63;;
24467;SDS011;12634;50.852;5.676;2023-01-20T14:09:57;17.85;;;12.10;;
24467;SDS011;12634;50.852;5.676;2023-01-20T14:12:26;20.42;;;12.73;;
24467;SDS011;12634;50.852;5.676;2023-01-20T14:14:54;17.83;;;12.43;;
24467;SDS011;12634;50.852;5.676;2023-01-20T14:17:21;17.05;;;12.20;;
24467;SDS011;12634;50.852;5.676;2023-01-20T14:19:51;16.95;;;11.93;;
24467;SDS011;12634;50.852;5.676;2023-01-20T14:22:22;18.13;;;11.88;;
24467;SDS011;12634;50.852;5.676;2023-01-20T14:24:51;17.25;;;12.02;;
24467;SDS011;12634;50.852;5.676;2023-01-20T14:27:21;17.33;;;12.13;;
24467;SDS011;12634;50.852;5.676;2023-01-20T14:29:51;16.17;;;12.30;;
24467;SDS011;12634;50.852;5.676;2023-01-20T14:32:21;16.30;;;10.45;;
24467;SDS011;12634;50.852;5.676;2023-01-20T14:34:52;16.10;;;13.20;;
24467;SDS011;12634;50.852;5.676;2023-01-20T14:37:23;22.25;;;13.15;;
24467;SDS011;12634;50.852;5.676;2023-01-20T14:39:53;17.70;;;12.52;;
24467;SDS011;12634;50.852;5.676;2023-01-20T14:42:23;13.45;;;9.93;;
24467;SDS011;12634;50.852;5.676;2023-01-20T14:44:52;14.68;;;11.23;;
24467;SDS011;12634;50.852;5.676;2023-01-20T14:47:23;15.98;;;11.05;;
24467;SDS011;12634;50.852;5.676;2023-01-20T14:49:52;14.13;;;10.38;;
24467;SDS011;12634;50.852;5.676;2023-01-20T14:52:21;14.50;;;9.32;;
24467;SDS011;12634;50.852;5.676;2023-01-20T14:54:52;14.65;;;9.63;;
24467;SDS011;12634;50.852;5.676;2023-01-20T14:57:22;14.68;;;10.18;;
24467;SDS011;12634;50.852;5.676;2023-01-20T15:00:10;12.88;;;9.57;;
24467;SDS011;12634;50.852;5.676;2023-01-20T15:02:41;13.93;;;10.10;;
24467;SDS011;12634;50.852;5.676;2023-01-20T15:05:23;14.45;;;9.27;;
24467;SDS011;12634;50.852;5.676;2023-01-20T15:08:12;13.13;;;10.00;;
24467;SDS011;12634;50.852;5.676;2023-01-20T15:10:47;12.35;;;8.93;;
24467;SDS011;12634;50.852;5.676;2023-01-20T15:13:35;9.65;;;7.60;;
24467;SDS011;12634;50.852;5.676;2023-01-20T15:16:07;11.80;;;8.38;;
24467;SDS011;12634;50.852;5.676;2023-01-20T15:18:42;10.27;;;8.55;;
24467;SDS011;12634;50.852;5.676;2023-01-20T15:21:16;14.60;;;9.35;;
24467;SDS011;12634;50.852;5.676;2023-01-20T15:23:50;9.68;;;8.10;;